sensor_id;sensor_type;location;lat;lon;timestamp;pressure;altitude;pressure_sealevel;temperature;humidity
36964;BME280;22878;48.616;35.326;2023-03-04T00:00:36;100458.30;;;3.47;100.00
36964;BME280;22878;48.616;35.326;2023-03-04T00:03:07;100453.83;;;3.47;100.00
36964;BME280;22878;48.616;35.326;2023-03-04T00:05:35;100448.67;;;3.47;100.00
36964;BME280;22878;48.616;35.326;2023-03-04T00:08:01;100446.25;;;3.46;100.00
36964;BME280;22878;48.616;35.326;2023-03-04T00:10:26;100444.00;;;3.46;100.00
36964;BME280;22878;48.616;35.326;2023-03-04T00:12:52;100440.02;;;3.45;100.00
36964;BME280;22878;48.616;35.326;2023-03-04T00:15:17;100440.20;;;3.45;100.00
36964;BME280;22878;48.616;35.326;2023-03-04T00:17:43;100438.42;;;3.45;100.00
36964;BME280;22878;48.616;35.326;2023-03-04T00:20:10;100437.45;;;3.45;100.00
36964;BME280;22878;48.616;35.326;2023-03-04T00:22:36;100435.90;;;3.44;100.00
36964;BME280;22878;48.616;35.326;2023-03-04T00:25:02;100435.41;;;3.45;100.00
36964;BME280;22878;48.616;35.326;2023-03-04T00:27:27;100434.75;;;3.44;100.00
36964;BME280;22878;48.616;35.326;2023-03-04T00:29:54;100429.52;;;3.43;100.00
36964;BME280;22878;48.616;35.326;2023-03-04T00:32:20;100431.90;;;3.42;100.00
36964;BME280;22878;48.616;35.326;2023-03-04T00:34:45;100428.01;;;3.42;100.00
36964;BME280;22878;48.616;35.326;2023-03-04T00:37:11;100428.10;;;3.41;100.00
36964;BME280;22878;48.616;35.326;2023-03-04T00:39:36;100425.04;;;3.39;100.00
36964;BME280;22878;48.616;35.326;2023-03-04T00:42:02;100428.02;;;3.38;100.00
36964;BME280;22878;48.616;35.326;2023-03-04T00:44:27;100428.49;;;3.37;100.00
36964;BME280;22878;48.616;35.326;2023-03-04T00:46:53;100429.04;;;3.36;100.00
36964;BME280;22878;48.616;35.326;2023-03-04T00:49:18;100426.26;;;3.34;100.00
36964;BME280;22878;48.616;35.326;2023-03-04T00:51:44;100432.57;;;3.34;100.00
36964;BME280;22878;48.616;35.326;2023-03-04T00:54:09;100425.74;;;3.32;100.00
36964;BME280;22878;48.616;35.326;2023-03-04T00:56:35;100427.18;;;3.31;100.00
36964;BME280;22878;48.616;35.326;2023-03-04T00:59:00;100425.18;;;3.31;100.00
36964;BME280;22878;48.616;35.326;2023-03-04T01:01:26;100418.14;;;3.29;100.00
36964;BME280;22878;48.616;35.326;2023-03-04T01:03:51;100417.05;;;3.28;100.00
36964;BME280;22878;48.616;35.326;2023-03-04T01:06:17;100416.13;;;3.26;100.00
36964;BME280;22878;48.616;35.326;2023-03-04T01:08:42;100412.69;;;3.25;100.00
36964;BME280;22878;48.616;35.326;2023-03-04T01:11:08;100413.59;;;3.26;100.00
36964;BME280;22878;48.616;35.326;2023-03-04T01:13:34;100409.20;;;3.24;100.00
36964;BME280;22878;48.616;35.326;2023-03-04T01:15:59;100410.56;;;3.24;100.00
36964;BME280;22878;48.616;35.326;2023-03-04T01:18:25;100406.15;;;3.22;100.00
36964;BME280;22878;48.616;35.326;2023-03-04T01:20:50;100399.07;;;3.21;100.00
36964;BME280;22878;48.616;35.326;2023-03-04T01:23:16;100400.76;;;3.20;100.00
36964;BME280;22878;48.616;35.326;2023-03-04T01:25:41;100402.25;;;3.18;100.00
36964;BME280;22878;48.616;35.326;2023-03-04T01:28:07;100398.90;;;3.17;100.00
36964;BME280;22878;48.616;35.326;2023-03-04T01:30:33;100404.08;;;3.14;100.00
36964;BME280;22878;48.616;35.326;2023-03-04T01:32:58;100413.72;;;3.11;100.00
36964;BME280;22878;48.616;35.326;2023-03-04T01:35:24;100413.66;;;3.09;100.00
36964;BME280;22878;48.616;35.326;2023-03-04T01:37:49;100417.27;;;3.05;100.00
36964;BME280;22878;48.616;35.326;2023-03-04T01:40:15;100416.24;;;3.00;100.00
36964;BME280;22878;48.616;35.326;2023-03-04T01:42:41;100417.65;;;2.91;100.00
36964;BME280;22878;48.616;35.326;2023-03-04T01:45:11;100415.59;;;2.81;100.00
36964;BME280;22878;48.616;35.326;2023-03-04T01:47:38;100413.52;;;2.68;100.00
36964;BME280;22878;48.616;35.326;2023-03-04T01:50:06;100418.97;;;2.57;100.00
36964;BME280;22878;48.616;35.326;2023-03-04T01:52:36;100421.47;;;2.47;100.00
36964;BME280;22878;48.616;35.326;2023-03-04T01:55:10;100423.35;;;2.38;100.00
36964;BME280;22878;48.616;35.326;2023-03-04T01:57:38;100425.17;;;2.28;100.00
36964;BME280;22878;48.616;35.326;2023-03-04T02:02:43;100423.10;;;2.08;100.00
36964;BME280;22878;48.616;35.326;2023-03-04T02:05:08;100423.20;;;1.98;100.00
36964;BME280;22878;48.616;35.326;2023-03-04T02:07:34;100426.13;;;1.90;100.00
36964;BME280;22878;48.616;35.326;2023-03-04T02:10:00;100423.85;;;1.81;100.00
36964;BME280;22878;48.616;35.326;2023-03-04T02:12:26;100425.38;;;1.71;100.00
36964;BME280;22878;48.616;35.326;2023-03-04T02:14:51;100425.58;;;1.62;100.00
36964;BME280;22878;48.616;35.326;2023-03-04T02:17:23;100423.90;;;1.54;100.00
36964;BME280;22878;48.616;35.326;2023-03-04T02:19:58;100425.77;;;1.45;100.00
36964;BME280;22878;48.616;35.326;2023-03-04T02:22:27;100423.73;;;1.36;100.00
36964;BME280;22878;48.616;35.326;2023-03-04T02:25:15;100425.61;;;1.29;100.00
36964;BME280;22878;48.616;35.326;2023-03-04T02:27:43;100425.44;;;1.21;100.00
36964;BME280;22878;48.616;35.326;2023-03-04T02:30:10;100428.29;;;1.15;100.00
36964;BME280;22878;48.616;35.326;2023-03-04T02:32:37;100428.61;;;1.10;100.00
36964;BME280;22878;48.616;35.326;2023-03-04T02:35:03;100427.49;;;1.05;100.00
36964;BME280;22878;48.616;35.326;2023-03-04T02:37:28;100426.55;;;0.99;100.00
36964;BME280;22878;48.616;35.326;2023-03-04T02:39:54;100422.50;;;0.95;100.00
36964;BME280;22878;48.616;35.326;2023-03-04T02:42:19;100424.77;;;0.91;100.00
36964;BME280;22878;48.616;35.326;2023-03-04T02:44:46;100425.48;;;0.86;100.00
36964;BME280;22878;48.616;35.326;2023-03-04T02:47:15;100421.76;;;0.81;100.00
36964;BME280;22878;48.616;35.326;2023-03-04T02:49:45;100421.74;;;0.76;100.00
36964;BME280;22878;48.616;35.326;2023-03-04T02:52:18;100425.45;;;0.69;100.00
36964;BME280;22878;48.616;35.326;2023-03-04T02:54:44;100426.98;;;0.64;100.00
36964;BME280;22878;48.616;35.326;2023-03-04T02:57:11;100427.20;;;0.60;100.00
36964;BME280;22878;48.616;35.326;2023-03-04T02:59:38;100424.79;;;0.55;100.00
36964;BME280;22878;48.616;35.326;2023-03-04T03:02:04;100423.74;;;0.51;100.00
36964;BME280;22878;48.616;35.326;2023-03-04T03:04:30;100429.10;;;0.47;100.00
36964;BME280;22878;48.616;35.326;2023-03-04T03:06:56;100420.60;;;0.41;100.00
36964;BME280;22878;48.616;35.326;2023-03-04T03:09:21;100420.79;;;0.37;100.00
36964;BME280;22878;48.616;35.326;2023-03-04T03:11:47;100421.35;;;0.34;100.00
36964;BME280;22878;48.616;35.326;2023-03-04T03:14:13;100426.44;;;0.34;100.00
36964;BME280;22878;48.616;35.326;2023-03-04T03:16:39;100421.47;;;0.33;100.00
36964;BME280;22878;48.616;35.326;2023-03-04T03:19:04;100420.67;;;0.31;100.00
36964;BME280;22878;48.616;35.326;2023-03-04T03:21:30;100418.42;;;0.29;100.00
36964;BME280;22878;48.616;35.326;2023-03-04T03:23:56;100420.16;;;0.25;100.00
36964;BME280;22878;48.616;35.326;2023-03-04T03:26:21;100419.12;;;0.21;100.00
36964;BME280;22878;48.616;35.326;2023-03-04T03:28:47;100418.95;;;0.17;100.00
36964;BME280;22878;48.616;35.326;2023-03-04T03:31:13;100414.64;;;0.13;100.00
36964;BME280;22878;48.616;35.326;2023-03-04T03:33:39;100415.55;;;0.09;100.00
36964;BME280;22878;48.616;35.326;2023-03-04T03:36:05;100416.06;;;0.06;100.00
36964;BME280;22878;48.616;35.326;2023-03-04T03:38:31;100415.36;;;0.03;100.00
36964;BME280;22878;48.616;35.326;2023-03-04T03:40:56;100418.16;;;-0.01;100.00
36964;BME280;22878;48.616;35.326;2023-03-04T03:43:22;100416.45;;;-0.05;100.00
36964;BME280;22878;48.616;35.326;2023-03-04T03:45:47;100417.89;;;-0.08;100.00
36964;BME280;22878;48.616;35.326;2023-03-04T03:48:13;100415.63;;;-0.13;100.00
36964;BME280;22878;48.616;35.326;2023-03-04T03:50:38;100416.95;;;-0.16;100.00
36964;BME280;22878;48.616;35.326;2023-03-04T03:53:04;100418.36;;;-0.19;100.00
36964;BME280;22878;48.616;35.326;2023-03-04T03:55:29;100413.29;;;-0.22;100.00
36964;BME280;22878;48.616;35.326;2023-03-04T03:57:55;100412.11;;;-0.21;100.00
36964;BME280;22878;48.616;35.326;2023-03-04T04:00:21;100409.83;;;-0.22;100.00
36964;BME280;22878;48.616;35.326;2023-03-04T04:02:47;100412.45;;;-0.25;100.00
36964;BME280;22878;48.616;35.326;2023-03-04T04:05:13;100412.60;;;-0.26;100.00
36964;BME280;22878;48.616;35.326;2023-03-04T04:07:38;100412.75;;;-0.29;100.00
36964;BME280;22878;48.616;35.326;2023-03-04T04:10:07;100411.31;;;-0.30;100.00
36964;BME280;22878;48.616;35.326;2023-03-04T04:12:32;100414.77;;;-0.31;100.00
36964;BME280;22878;48.616;35.326;2023-03-04T04:14:58;100414.23;;;-0.34;100.00
36964;BME280;22878;48.616;35.326;2023-03-04T04:17:23;100412.79;;;-0.35;100.00
36964;BME280;22878;48.616;35.326;2023-03-04T04:19:49;100412.45;;;-0.32;100.00
36964;BME280;22878;48.616;35.326;2023-03-04T04:22:17;100411.70;;;-0.33;100.00
36964;BME280;22878;48.616;35.326;2023-03-04T04:24:43;100410.20;;;-0.33;100.00
36964;BME280;22878;48.616;35.326;2023-03-04T04:27:08;100416.19;;;-0.32;100.00
36964;BME280;22878;48.616;35.326;2023-03-04T04:29:34;100414.04;;;-0.31;100.00
36964;BME280;22878;48.616;35.326;2023-03-04T04:32:00;100415.23;;;-0.28;100.00
36964;BME280;22878;48.616;35.326;2023-03-04T04:34:25;100411.83;;;-0.26;100.00
36964;BME280;22878;48.616;35.326;2023-03-04T04:36:51;100409.88;;;-0.25;100.00
36964;BME280;22878;48.616;35.326;2023-03-04T04:39:17;100407.47;;;-0.20;100.00
36964;BME280;22878;48.616;35.326;2023-03-04T04:41:43;100406.87;;;-0.13;100.00
36964;BME280;22878;48.616;35.326;2023-03-04T04:44:09;100407.23;;;-0.05;100.00
36964;BME280;22878;48.616;35.326;2023-03-04T04:46:35;100412.84;;;0.04;100.00
36964;BME280;22878;48.616;35.326;2023-03-04T04:49:01;100412.27;;;0.12;100.00
36964;BME280;22878;48.616;35.326;2023-03-04T04:51:27;100413.14;;;0.22;100.00
36964;BME280;22878;48.616;35.326;2023-03-04T04:53:53;100414.22;;;0.36;100.00
36964;BME280;22878;48.616;35.326;2023-03-04T04:56:21;100416.89;;;0.51;100.00
36964;BME280;22878;48.616;35.326;2023-03-04T04:58:48;100415.86;;;0.60;100.00
36964;BME280;22878;48.616;35.326;2023-03-04T05:01:14;100414.71;;;0.69;100.00
36964;BME280;22878;48.616;35.326;2023-03-04T05:03:40;100416.88;;;0.82;100.00
36964;BME280;22878;48.616;35.326;2023-03-04T05:06:07;100417.44;;;1.28;100.00
36964;BME280;22878;48.616;35.326;2023-03-04T05:08:34;100422.55;;;2.23;100.00
36964;BME280;22878;48.616;35.326;2023-03-04T05:11:00;100415.37;;;3.21;100.00
36964;BME280;22878;48.616;35.326;2023-03-04T05:13:26;100416.98;;;4.13;100.00
36964;BME280;22878;48.616;35.326;2023-03-04T05:15:53;100417.64;;;4.96;100.00
36964;BME280;22878;48.616;35.326;2023-03-04T05:18:23;100419.02;;;5.76;100.00
36964;BME280;22878;48.616;35.326;2023-03-04T05:20:53;100420.38;;;6.61;100.00
36964;BME280;22878;48.616;35.326;2023-03-04T05:23:20;100425.28;;;7.39;100.00
36964;BME280;22878;48.616;35.326;2023-03-04T05:25:46;100428.72;;;8.17;100.00
36964;BME280;22878;48.616;35.326;2023-03-04T05:28:13;100433.13;;;9.08;100.00
36964;BME280;22878;48.616;35.326;2023-03-04T05:30:40;100435.05;;;9.88;100.00
36964;BME280;22878;48.616;35.326;2023-03-04T05:33:06;100441.45;;;10.49;97.32
36964;BME280;22878;48.616;35.326;2023-03-04T05:35:37;100447.58;;;11.11;91.16
36964;BME280;22878;48.616;35.326;2023-03-04T05:38:04;100446.86;;;11.89;89.42
36964;BME280;22878;48.616;35.326;2023-03-04T05:40:30;100443.41;;;12.57;78.86
36964;BME280;22878;48.616;35.326;2023-03-04T05:42:56;100447.06;;;12.95;68.91
36964;BME280;22878;48.616;35.326;2023-03-04T05:45:25;100447.84;;;13.46;67.12
36964;BME280;22878;48.616;35.326;2023-03-04T05:47:51;100453.27;;;13.64;61.45
36964;BME280;22878;48.616;35.326;2023-03-04T05:50:17;100454.16;;;13.74;61.52
36964;BME280;22878;48.616;35.326;2023-03-04T05:52:43;100460.48;;;14.11;60.10
36964;BME280;22878;48.616;35.326;2023-03-04T05:55:08;100460.84;;;14.19;56.27
36964;BME280;22878;48.616;35.326;2023-03-04T05:57:34;100462.39;;;14.25;56.41
36964;BME280;22878;48.616;35.326;2023-03-04T06:00:00;100459.79;;;14.74;55.97
36964;BME280;22878;48.616;35.326;2023-03-04T06:02:26;100462.68;;;15.44;53.52
36964;BME280;22878;48.616;35.326;2023-03-04T06:04:54;100462.98;;;15.80;51.59
36964;BME280;22878;48.616;35.326;2023-03-04T06:07:20;100461.24;;;16.14;49.93
36964;BME280;22878;48.616;35.326;2023-03-04T06:09:46;100457.23;;;16.47;47.69
36964;BME280;22878;48.616;35.326;2023-03-04T06:12:11;100456.16;;;16.55;47.13
36964;BME280;22878;48.616;35.326;2023-03-04T06:14:37;100459.34;;;16.84;47.14
36964;BME280;22878;48.616;35.326;2023-03-04T06:17:03;100456.80;;;17.22;45.50
36964;BME280;22878;48.616;35.326;2023-03-04T06:19:30;100457.20;;;17.84;44.56
36964;BME280;22878;48.616;35.326;2023-03-04T06:21:56;100455.25;;;18.02;42.41
36964;BME280;22878;48.616;35.326;2023-03-04T06:24:22;100458.05;;;17.87;42.47
36964;BME280;22878;48.616;35.326;2023-03-04T06:26:47;100449.73;;;18.23;42.22
36964;BME280;22878;48.616;35.326;2023-03-04T06:29:13;100448.66;;;18.77;41.90
36964;BME280;22878;48.616;35.326;2023-03-04T06:31:39;100447.71;;;19.07;40.72
36964;BME280;22878;48.616;35.326;2023-03-04T06:34:07;100450.45;;;19.38;39.35
36964;BME280;22878;48.616;35.326;2023-03-04T06:36:32;100448.64;;;19.69;39.29
36964;BME280;22878;48.616;35.326;2023-03-04T06:38:58;100448.15;;;20.06;39.40
36964;BME280;22878;48.616;35.326;2023-03-04T06:41:25;100448.66;;;20.07;37.61
36964;BME280;22878;48.616;35.326;2023-03-04T06:43:54;100445.27;;;20.44;36.94
36964;BME280;22878;48.616;35.326;2023-03-04T06:46:20;100446.52;;;20.71;36.85
36964;BME280;22878;48.616;35.326;2023-03-04T06:48:45;100443.23;;;20.73;36.69
36964;BME280;22878;48.616;35.326;2023-03-04T06:51:11;100438.90;;;21.03;36.45
36964;BME280;22878;48.616;35.326;2023-03-04T06:53:38;100442.48;;;21.34;35.84
36964;BME280;22878;48.616;35.326;2023-03-04T06:56:05;100442.13;;;21.68;34.99
36964;BME280;22878;48.616;35.326;2023-03-04T06:58:30;100441.37;;;22.03;34.62
36964;BME280;22878;48.616;35.326;2023-03-04T07:01:34;100442.10;;;21.94;33.81
36964;BME280;22878;48.616;35.326;2023-03-04T07:04:01;100441.19;;;22.40;33.38
36964;BME280;22878;48.616;35.326;2023-03-04T07:06:27;100441.44;;;22.53;32.74
36964;BME280;22878;48.616;35.326;2023-03-04T07:08:54;100440.09;;;22.75;32.66
36964;BME280;22878;48.616;35.326;2023-03-04T07:11:20;100443.59;;;22.92;32.64
36964;BME280;22878;48.616;35.326;2023-03-04T07:13:46;100438.69;;;22.78;32.01
36964;BME280;22878;48.616;35.326;2023-03-04T07:16:14;100439.71;;;23.19;31.68
36964;BME280;22878;48.616;35.326;2023-03-04T07:18:42;100440.85;;;22.82;30.95
36964;BME280;22878;48.616;35.326;2023-03-04T07:21:07;100436.69;;;22.59;31.99
36964;BME280;22878;48.616;35.326;2023-03-04T07:23:33;100435.33;;;22.83;31.66
36964;BME280;22878;48.616;35.326;2023-03-04T07:25:59;100434.31;;;22.86;31.53
36964;BME280;22878;48.616;35.326;2023-03-04T07:28:25;100432.77;;;22.76;31.20
36964;BME280;22878;48.616;35.326;2023-03-04T07:30:51;100434.88;;;23.00;31.28
36964;BME280;22878;48.616;35.326;2023-03-04T07:33:16;100439.55;;;22.93;30.96
36964;BME280;22878;48.616;35.326;2023-03-04T07:35:42;100435.14;;;22.98;30.47
36964;BME280;22878;48.616;35.326;2023-03-04T07:38:07;100432.17;;;22.90;30.52
36964;BME280;22878;48.616;35.326;2023-03-04T07:40:33;100427.08;;;22.81;30.62
36964;BME280;22878;48.616;35.326;2023-03-04T07:42:58;100432.64;;;23.03;30.78
36964;BME280;22878;48.616;35.326;2023-03-04T07:45:30;100433.03;;;23.33;30.37
36964;BME280;22878;48.616;35.326;2023-03-04T07:47:57;100434.02;;;23.37;29.79
36964;BME280;22878;48.616;35.326;2023-03-04T07:50:23;100430.31;;;23.52;29.73
36964;BME280;22878;48.616;35.326;2023-03-04T07:52:48;100429.02;;;23.39;29.56
36964;BME280;22878;48.616;35.326;2023-03-04T07:55:18;100430.61;;;23.74;29.96
36964;BME280;22878;48.616;35.326;2023-03-04T07:57:46;100425.95;;;24.00;29.54
36964;BME280;22878;48.616;35.326;2023-03-04T08:00:14;100423.78;;;24.11;29.00
36964;BME280;22878;48.616;35.326;2023-03-04T08:02:40;100424.52;;;24.08;29.83
36964;BME280;22878;48.616;35.326;2023-03-04T08:05:06;100425.58;;;24.53;29.55
36964;BME280;22878;48.616;35.326;2023-03-04T08:07:32;100423.21;;;24.79;29.17
36964;BME280;22878;48.616;35.326;2023-03-04T08:09:57;100416.83;;;25.20;28.74
36964;BME280;22878;48.616;35.326;2023-03-04T08:12:23;100419.75;;;25.24;28.23
36964;BME280;22878;48.616;35.326;2023-03-04T08:14:50;100408.61;;;25.64;28.24
36964;BME280;22878;48.616;35.326;2023-03-04T08:17:15;100405.90;;;25.49;27.75
36964;BME280;22878;48.616;35.326;2023-03-04T08:19:41;100401.91;;;25.64;27.65
36964;BME280;22878;48.616;35.326;2023-03-04T08:22:07;100392.52;;;25.81;27.59
36964;BME280;22878;48.616;35.326;2023-03-04T08:24:32;100392.61;;;25.74;27.08
36964;BME280;22878;48.616;35.326;2023-03-04T08:26:58;100385.44;;;25.43;27.12
36964;BME280;22878;48.616;35.326;2023-03-04T08:29:24;100385.44;;;25.35;27.05
36964;BME280;22878;48.616;35.326;2023-03-04T08:31:51;100397.92;;;24.98;26.94
36964;BME280;22878;48.616;35.326;2023-03-04T08:34:19;100394.23;;;24.80;27.41
36964;BME280;22878;48.616;35.326;2023-03-04T08:36:45;100388.73;;;24.45;27.09
36964;BME280;22878;48.616;35.326;2023-03-04T08:39:13;100377.64;;;24.29;27.44
36964;BME280;22878;48.616;35.326;2023-03-04T08:41:39;100376.73;;;24.34;27.23
36964;BME280;22878;48.616;35.326;2023-03-04T08:44:05;100374.64;;;24.48;27.30
36964;BME280;22878;48.616;35.326;2023-03-04T08:46:32;100372.92;;;24.39;27.03
36964;BME280;22878;48.616;35.326;2023-03-04T08:48:58;100373.73;;;23.90;27.66
36964;BME280;22878;48.616;35.326;2023-03-04T08:51:24;100372.73;;;23.86;28.23
36964;BME280;22878;48.616;35.326;2023-03-04T08:53:50;100375.86;;;23.78;28.16
36964;BME280;22878;48.616;35.326;2023-03-04T08:56:15;100369.42;;;23.82;27.76
36964;BME280;22878;48.616;35.326;2023-03-04T08:58:41;100365.20;;;23.33;28.36
36964;BME280;22878;48.616;35.326;2023-03-04T09:01:09;100370.69;;;23.53;28.32
36964;BME280;22878;48.616;35.326;2023-03-04T09:03:35;100367.55;;;22.89;27.58
36964;BME280;22878;48.616;35.326;2023-03-04T09:06:04;100368.91;;;22.12;28.10
36964;BME280;22878;48.616;35.326;2023-03-04T09:08:30;100367.34;;;21.38;29.25
36964;BME280;22878;48.616;35.326;2023-03-04T09:10:56;100361.63;;;20.68;29.73
36964;BME280;22878;48.616;35.326;2023-03-04T09:13:23;100362.95;;;19.81;30.79
36964;BME280;22878;48.616;35.326;2023-03-04T09:15:50;100356.52;;;19.13;31.87
36964;BME280;22878;48.616;35.326;2023-03-04T09:18:18;100350.14;;;18.39;32.22
36964;BME280;22878;48.616;35.326;2023-03-04T09:20:44;100343.46;;;17.73;33.18
36964;BME280;22878;48.616;35.326;2023-03-04T09:23:10;100341.31;;;17.30;34.07
36964;BME280;22878;48.616;35.326;2023-03-04T09:25:37;100339.27;;;16.90;34.69
36964;BME280;22878;48.616;35.326;2023-03-04T09:28:04;100335.52;;;16.68;35.01
36964;BME280;22878;48.616;35.326;2023-03-04T09:30:30;100332.69;;;16.43;35.76
36964;BME280;22878;48.616;35.326;2023-03-04T09:32:56;100331.30;;;15.92;35.51
36964;BME280;22878;48.616;35.326;2023-03-04T09:35:22;100325.87;;;15.21;36.64
36964;BME280;22878;48.616;35.326;2023-03-04T09:37:48;100318.41;;;14.74;37.48
36964;BME280;22878;48.616;35.326;2023-03-04T09:40:19;100318.25;;;14.70;37.93
36964;BME280;22878;48.616;35.326;2023-03-04T09:42:49;100316.59;;;14.53;38.88
36964;BME280;22878;48.616;35.326;2023-03-04T09:45:21;100304.27;;;14.41;38.49
36964;BME280;22878;48.616;35.326;2023-03-04T09:47:50;100300.55;;;14.28;38.89
36964;BME280;22878;48.616;35.326;2023-03-04T09:50:18;100294.88;;;14.30;38.30
36964;BME280;22878;48.616;35.326;2023-03-04T09:53:02;100291.83;;;14.11;38.51
36964;BME280;22878;48.616;35.326;2023-03-04T09:55:36;100288.18;;;13.71;39.61
36964;BME280;22878;48.616;35.326;2023-03-04T10:01:23;100275.60;;;13.43;40.32
36964;BME280;22878;48.616;35.326;2023-03-04T10:03:58;100273.92;;;13.32;40.70
36964;BME280;22878;48.616;35.326;2023-03-04T10:06:24;100268.02;;;13.25;40.95
36964;BME280;22878;48.616;35.326;2023-03-04T10:11:38;100262.11;;;13.07;40.78
36964;BME280;22878;48.616;35.326;2023-03-04T10:16:53;100249.98;;;12.56;41.66
36964;BME280;22878;48.616;35.326;2023-03-04T10:21:55;100238.30;;;12.31;42.02
36964;BME280;22878;48.616;35.326;2023-03-04T10:24:25;100233.19;;;12.18;43.01
36964;BME280;22878;48.616;35.326;2023-03-04T10:27:00;100229.55;;;12.16;43.05
36964;BME280;22878;48.616;35.326;2023-03-04T10:29:29;100227.63;;;12.10;42.94
36964;BME280;22878;48.616;35.326;2023-03-04T10:31:56;100225.45;;;12.00;42.47
36964;BME280;22878;48.616;35.326;2023-03-04T10:34:22;100219.05;;;11.79;42.61
36964;BME280;22878;48.616;35.326;2023-03-04T10:39:27;100205.59;;;11.60;42.97
36964;BME280;22878;48.616;35.326;2023-03-04T10:42:00;100203.36;;;11.47;43.27
36964;BME280;22878;48.616;35.326;2023-03-04T10:44:26;100199.33;;;11.26;43.63
36964;BME280;22878;48.616;35.326;2023-03-04T10:46:54;100185.65;;;11.13;43.49
36964;BME280;22878;48.616;35.326;2023-03-04T10:49:22;100184.61;;;10.96;43.95
36964;BME280;22878;48.616;35.326;2023-03-04T10:51:52;100179.20;;;10.78;44.63
36964;BME280;22878;48.616;35.326;2023-03-04T10:54:35;100178.23;;;10.65;45.13
36964;BME280;22878;48.616;35.326;2023-03-04T10:57:33;100173.17;;;10.57;46.13
36964;BME280;22878;48.616;35.326;2023-03-04T11:07:44;100155.76;;;10.70;45.97
36964;BME280;22878;48.616;35.326;2023-03-04T11:13:16;100156.39;;;10.75;46.17
36964;BME280;22878;48.616;35.326;2023-03-04T11:18:16;100143.89;;;10.79;45.85
36964;BME280;22878;48.616;35.326;2023-03-04T11:20:47;100142.48;;;10.85;46.16
36964;BME280;22878;48.616;35.326;2023-03-04T11:25:57;100138.48;;;10.77;45.91
36964;BME280;22878;48.616;35.326;2023-03-04T11:28:43;100134.40;;;10.74;45.89
36964;BME280;22878;48.616;35.326;2023-03-04T11:31:27;100132.25;;;10.72;46.06
36964;BME280;22878;48.616;35.326;2023-03-04T11:34:19;100130.31;;;10.72;46.11
36964;BME280;22878;48.616;35.326;2023-03-04T11:36:59;100124.27;;;10.73;46.72
36964;BME280;22878;48.616;35.326;2023-03-04T11:39:40;100120.65;;;10.77;46.28
36964;BME280;22878;48.616;35.326;2023-03-04T11:42:16;100117.33;;;10.71;46.35
36964;BME280;22878;48.616;35.326;2023-03-04T11:44:45;100118.24;;;10.69;46.56
36964;BME280;22878;48.616;35.326;2023-03-04T11:47:36;100118.41;;;10.69;46.63
36964;BME280;22878;48.616;35.326;2023-03-04T11:52:38;100117.11;;;10.74;47.24
36964;BME280;22878;48.616;35.326;2023-03-04T11:55:30;100114.59;;;10.87;47.20
36964;BME280;22878;48.616;35.326;2023-03-04T12:01:03;100101.73;;;10.97;46.14
36964;BME280;22878;48.616;35.326;2023-03-04T12:03:53;100099.47;;;10.81;46.40
36964;BME280;22878;48.616;35.326;2023-03-04T12:09:28;100101.16;;;10.91;46.43
36964;BME280;22878;48.616;35.326;2023-03-04T12:14:49;100094.19;;;11.12;46.11
36964;BME280;22878;48.616;35.326;2023-03-04T12:20:14;100085.31;;;11.05;46.53
36964;BME280;22878;48.616;35.326;2023-03-04T12:25:59;100073.66;;;11.21;46.41
36964;BME280;22878;48.616;35.326;2023-03-04T12:31:35;100076.20;;;11.07;45.90
36964;BME280;22878;48.616;35.326;2023-03-04T12:43:05;100061.97;;;10.72;46.53
36964;BME280;22878;48.616;35.326;2023-03-04T12:45:48;100062.23;;;10.73;46.76
36964;BME280;22878;48.616;35.326;2023-03-04T12:48:34;100052.30;;;10.61;47.04
36964;BME280;22878;48.616;35.326;2023-03-04T12:56:48;100038.02;;;10.34;48.41
36964;BME280;22878;48.616;35.326;2023-03-04T12:59:18;100036.73;;;10.32;48.22
36964;BME280;22878;48.616;35.326;2023-03-04T13:04:55;100033.33;;;10.29;48.34
36964;BME280;22878;48.616;35.326;2023-03-04T13:11:00;100034.34;;;10.19;48.72
36964;BME280;22878;48.616;35.326;2023-03-04T13:13:39;100027.88;;;10.21;49.25
36964;BME280;22878;48.616;35.326;2023-03-04T13:16:43;100024.76;;;10.18;49.13
36964;BME280;22878;48.616;35.326;2023-03-04T13:19:41;100020.14;;;10.17;49.32
36964;BME280;22878;48.616;35.326;2023-03-04T13:22:29;100009.37;;;10.16;49.43
36964;BME280;22878;48.616;35.326;2023-03-04T13:24:57;100005.04;;;10.15;49.11
36964;BME280;22878;48.616;35.326;2023-03-04T13:27:43;99995.63;;;10.12;49.23
36964;BME280;22878;48.616;35.326;2023-03-04T13:32:55;99989.56;;;9.94;49.48
36964;BME280;22878;48.616;35.326;2023-03-04T13:38:24;99973.96;;;9.89;49.36
36964;BME280;22878;48.616;35.326;2023-03-04T13:51:41;99948.83;;;9.66;49.66
36964;BME280;22878;48.616;35.326;2023-03-04T13:54:29;99943.23;;;9.63;49.19
36964;BME280;22878;48.616;35.326;2023-03-04T13:59:53;99940.27;;;9.46;49.28
36964;BME280;22878;48.616;35.326;2023-03-04T14:02:21;99937.86;;;9.40;49.27
36964;BME280;22878;48.616;35.326;2023-03-04T14:12:26;99930.73;;;9.17;49.41
36964;BME280;22878;48.616;35.326;2023-03-04T14:14:55;99924.98;;;9.17;49.18
36964;BME280;22878;48.616;35.326;2023-03-04T14:17:26;99922.93;;;9.09;49.43
36964;BME280;22878;48.616;35.326;2023-03-04T14:19:52;99921.36;;;9.04;49.44
36964;BME280;22878;48.616;35.326;2023-03-04T14:24:59;99918.77;;;8.95;50.55
36964;BME280;22878;48.616;35.326;2023-03-04T14:27:27;99921.65;;;8.91;49.97
36964;BME280;22878;48.616;35.326;2023-03-04T14:29:57;99918.25;;;8.84;50.17